createdAt,value
2018-12-15T00:00:51.499Z,18.43
2018-12-15T00:03:18.886Z,17.27
2018-12-15T00:05:46.317Z,18.40
2018-12-15T00:08:13.711Z,18.97
2018-12-15T00:10:41.149Z,17.50
2018-12-15T00:13:08.562Z,16.87
2018-12-15T00:15:35.979Z,17.00
2018-12-15T00:18:03.530Z,16.47
2018-12-15T00:20:30.965Z,18.30
2018-12-15T00:22:58.359Z,18.60
2018-12-15T00:25:25.782Z,19.00
2018-12-15T00:27:53.173Z,18.13
2018-12-15T00:30:20.596Z,18.87
2018-12-15T00:32:47.978Z,18.07
2018-12-15T00:35:15.407Z,16.87
2018-12-15T00:37:42.939Z,17.70
2018-12-15T00:40:10.361Z,17.13
2018-12-15T00:42:37.740Z,17.37
2018-12-15T00:45:05.611Z,16.43
2018-12-15T00:47:33.026Z,16.47
2018-12-15T00:50:00.438Z,15.33
2018-12-15T00:52:27.864Z,15.60
2018-12-15T00:54:55.255Z,16.60
2018-12-15T00:57:22.661Z,17.70
2018-12-15T00:59:50.061Z,17.17
2018-12-15T01:02:17.486Z,18.07
2018-12-15T01:04:44.996Z,17.97
2018-12-15T01:07:12.425Z,17.00
2018-12-15T01:09:39.859Z,16.43
2018-12-15T01:12:07.256Z,14.80
2018-12-15T01:14:34.658Z,14.90
2018-12-15T01:17:02.169Z,15.33
2018-12-15T01:19:29.572Z,15.37
2018-12-15T01:21:56.946Z,17.33
2018-12-15T01:24:24.340Z,16.93
2018-12-15T01:26:51.759Z,16.40
2018-12-15T01:29:25.784Z,16.30
2018-12-15T01:31:53.418Z,17.00
2018-12-15T01:34:20.851Z,16.67
2018-12-15T01:36:48.256Z,15.90
2018-12-15T01:39:15.762Z,15.97
2018-12-15T01:41:50.025Z,16.13
2018-12-15T01:44:17.457Z,15.60
2018-12-15T01:46:44.840Z,16.53
2018-12-15T01:49:12.265Z,15.27
2018-12-15T01:51:39.652Z,15.73
2018-12-15T01:54:07.060Z,16.27
2018-12-15T01:56:34.484Z,15.97
2018-12-15T01:59:01.871Z,15.77
2018-12-15T02:01:29.329Z,16.30
2018-12-15T02:03:56.715Z,16.50
2018-12-15T02:06:24.141Z,16.77
2018-12-15T02:08:51.546Z,17.10
2018-12-15T02:11:18.968Z,15.60
2018-12-15T02:13:46.491Z,16.23
2018-12-15T02:16:13.909Z,17.53
2018-12-15T02:18:41.300Z,16.33
2018-12-15T02:21:08.721Z,15.97
2018-12-15T02:23:36.132Z,15.67
2018-12-15T02:26:03.572Z,16.30
2018-12-15T02:28:31.014Z,16.00
2018-12-15T02:30:58.451Z,16.20
2018-12-15T02:33:25.837Z,16.53
2018-12-15T02:35:53.259Z,16.23
2018-12-15T02:38:20.825Z,15.40
2018-12-15T02:40:48.245Z,15.67
2018-12-15T02:43:15.903Z,16.27
2018-12-15T02:45:43.362Z,16.90
2018-12-15T02:48:10.756Z,15.97
2018-12-15T02:50:38.190Z,16.23
2018-12-15T02:53:12.541Z,15.93
2018-12-15T02:55:39.985Z,16.50
2018-12-15T02:58:07.403Z,17.00
2018-12-15T03:00:34.853Z,16.10
2018-12-15T03:03:02.260Z,15.40
2018-12-15T03:05:29.690Z,14.60
2018-12-15T03:07:57.098Z,15.40
2018-12-15T03:10:24.524Z,15.80
2018-12-15T03:12:51.907Z,15.77
2018-12-15T03:15:19.328Z,16.80
2018-12-15T03:17:48.995Z,15.63
2018-12-15T03:20:16.289Z,16.43
2018-12-15T03:22:43.712Z,15.33
2018-12-15T03:25:11.148Z,16.53
2018-12-15T03:27:38.544Z,15.40
2018-12-15T03:30:06.197Z,15.93
2018-12-15T03:32:33.592Z,15.43
2018-12-15T03:35:01.017Z,15.53
2018-12-15T03:37:28.529Z,16.03
2018-12-15T03:39:55.936Z,16.10
2018-12-15T03:42:23.497Z,16.83
2018-12-15T03:44:51.159Z,15.97
2018-12-15T03:47:18.593Z,17.07
2018-12-15T03:49:45.988Z,16.70
2018-12-15T03:52:13.443Z,15.33
2018-12-15T03:54:40.937Z,14.87
2018-12-15T03:57:08.352Z,14.90
2018-12-15T03:59:35.882Z,14.50
2018-12-15T04:02:03.355Z,13.47
2018-12-15T04:04:31.584Z,14.63
2018-12-15T04:06:59.144Z,15.10
2018-12-15T04:09:26.546Z,14.93
2018-12-15T04:11:53.953Z,15.30
2018-12-15T04:14:21.381Z,15.70
2018-12-15T04:16:48.822Z,15.50
2018-12-15T04:19:16.221Z,15.83
2018-12-15T04:21:43.629Z,14.80
2018-12-15T04:24:11.025Z,15.97
2018-12-15T04:26:38.443Z,15.63
2018-12-15T04:29:10.200Z,17.07
2018-12-15T04:31:37.640Z,17.43
2018-12-15T04:34:05.032Z,14.83
2018-12-15T04:36:32.474Z,13.33
2018-12-15T04:38:59.873Z,13.73
2018-12-15T04:41:27.296Z,14.63
2018-12-15T04:43:55.188Z,14.67
2018-12-15T04:46:22.604Z,14.30
2018-12-15T04:48:49.997Z,14.07
2018-12-15T04:51:17.470Z,13.33
2018-12-15T04:53:44.863Z,14.20
2018-12-15T04:56:12.328Z,13.17
2018-12-15T04:58:39.736Z,14.17
2018-12-15T05:01:07.144Z,13.97
2018-12-15T05:03:34.909Z,15.23
2018-12-15T05:06:02.295Z,14.70
2018-12-15T05:08:29.721Z,14.23
2018-12-15T05:10:57.124Z,13.60
2018-12-15T05:13:24.645Z,14.23
2018-12-15T05:15:52.048Z,13.17
2018-12-15T05:18:19.464Z,14.30
2018-12-15T05:20:46.866Z,13.57
2018-12-15T05:23:14.275Z,12.93
2018-12-15T05:25:41.663Z,13.17
2018-12-15T05:28:09.080Z,11.73
2018-12-15T05:30:36.817Z,11.60
2018-12-15T05:33:04.396Z,12.80
2018-12-15T05:35:31.794Z,12.57
2018-12-15T05:37:59.208Z,12.63
2018-12-15T05:40:26.595Z,12.87
2018-12-15T05:42:54.008Z,11.07
2018-12-15T05:45:21.408Z,12.40
2018-12-15T05:47:48.884Z,11.60
2018-12-15T05:50:16.289Z,12.53
2018-12-15T05:52:43.695Z,12.60
2018-12-15T05:55:11.100Z,12.00
2018-12-15T05:57:38.645Z,12.57
2018-12-15T06:00:06.704Z,13.13
2018-12-15T06:02:34.440Z,13.10
2018-12-15T06:05:02.395Z,12.40
2018-12-15T06:07:29.811Z,12.57
2018-12-15T06:09:57.241Z,12.93
2018-12-15T06:12:24.679Z,12.30
2018-12-15T06:14:52.077Z,13.20
2018-12-15T06:17:19.508Z,13.33
2018-12-15T06:19:46.903Z,13.70
2018-12-15T06:22:14.323Z,13.43
2018-12-15T06:24:41.716Z,12.77
2018-12-15T06:27:09.172Z,13.10
2018-12-15T06:29:36.562Z,13.33
2018-12-15T06:32:04.028Z,13.53
2018-12-15T06:34:38.123Z,13.20
2018-12-15T06:37:05.540Z,12.80
2018-12-15T06:39:32.928Z,12.10
2018-12-15T06:42:00.377Z,11.97
2018-12-15T06:44:27.776Z,11.70
2018-12-15T06:46:55.175Z,12.13
2018-12-15T06:49:23.425Z,11.27
2018-12-15T06:51:50.812Z,11.50
2018-12-15T06:54:18.215Z,12.93
2018-12-15T06:56:45.603Z,12.17
2018-12-15T06:59:13.032Z,12.03
2018-12-15T07:01:40.415Z,12.07
2018-12-15T07:04:07.844Z,12.03
2018-12-15T07:06:35.233Z,13.53
2018-12-15T07:09:03.503Z,13.03
2018-12-15T07:11:30.927Z,12.43
2018-12-15T07:13:58.387Z,12.27
2018-12-15T07:16:25.777Z,12.93
2018-12-15T07:18:53.191Z,12.27
2018-12-15T07:21:20.586Z,12.50
2018-12-15T07:23:48.007Z,12.13
2018-12-15T07:26:15.383Z,11.57
2018-12-15T07:28:42.792Z,11.40
2018-12-15T07:31:10.203Z,11.13
2018-12-15T07:33:37.604Z,11.60
2018-12-15T07:36:05.008Z,12.97
2018-12-15T07:38:32.416Z,11.87
2018-12-15T07:40:59.834Z,11.50
2018-12-15T07:43:27.258Z,12.60
2018-12-15T07:45:54.648Z,12.67
2018-12-15T07:48:22.193Z,11.53
2018-12-15T07:50:49.574Z,11.33
2018-12-15T07:53:17.021Z,12.07
2018-12-15T07:55:51.080Z,12.67
2018-12-15T07:58:18.505Z,12.40
2018-12-15T08:00:45.892Z,12.53
2018-12-15T08:03:13.316Z,12.33
2018-12-15T08:05:40.704Z,12.53
2018-12-15T08:08:08.148Z,11.50
2018-12-15T08:11:41.413Z,12.33
2018-12-15T08:14:09.793Z,11.77
2018-12-15T08:16:37.412Z,11.93
2018-12-15T08:19:05.934Z,11.57
2018-12-15T08:21:33.702Z,11.37
2018-12-15T08:24:01.133Z,11.57
2018-12-15T08:26:28.692Z,12.50
2018-12-15T08:28:56.117Z,13.27
2018-12-15T08:31:23.593Z,11.87
2018-12-15T08:33:51.000Z,12.23
2018-12-15T08:36:18.471Z,11.70
2018-12-15T08:38:45.915Z,14.87
2018-12-15T08:41:13.383Z,12.13
2018-12-15T08:43:40.966Z,13.50
2018-12-15T08:46:11.180Z,14.40
2018-12-15T08:48:38.612Z,13.47
2018-12-15T08:51:06.258Z,13.60
2018-12-15T08:53:33.747Z,14.30
2018-12-15T08:56:01.170Z,14.83
2018-12-15T08:58:28.629Z,17.17
2018-12-15T09:00:56.012Z,18.23
2018-12-15T09:03:23.456Z,17.87
2018-12-15T09:05:50.860Z,18.73
2018-12-15T09:08:18.276Z,15.43
2018-12-15T09:10:45.699Z,15.27
2018-12-15T09:13:13.126Z,14.47
2018-12-15T09:15:40.525Z,13.47
2018-12-15T09:18:07.949Z,12.57
2018-12-15T09:20:35.464Z,13.93
2018-12-15T09:23:02.912Z,13.13
2018-12-15T09:25:30.304Z,13.33
2018-12-15T09:27:57.824Z,13.00
2018-12-15T09:30:25.381Z,13.37
2018-12-15T09:32:52.759Z,13.43
2018-12-15T09:35:20.183Z,13.27
2018-12-15T09:37:47.567Z,14.37
2018-12-15T09:40:15.005Z,13.13
2018-12-15T09:42:42.390Z,13.97
2018-12-15T09:45:09.929Z,14.10
2018-12-15T09:47:37.341Z,13.70
2018-12-15T09:50:04.944Z,14.43
2018-12-15T09:52:32.478Z,13.50
2018-12-15T09:54:59.929Z,14.33
2018-12-15T09:57:27.384Z,14.13
2018-12-15T09:59:54.800Z,14.47
2018-12-15T10:02:22.201Z,14.00
2018-12-15T10:04:49.645Z,14.40
2018-12-15T10:07:17.085Z,13.37
2018-12-15T10:09:44.531Z,14.03
2018-12-15T10:12:11.936Z,13.67
2018-12-15T10:14:39.848Z,13.83
2018-12-15T10:17:07.256Z,14.40
2018-12-15T10:19:34.685Z,14.33
2018-12-15T10:22:02.088Z,15.00
2018-12-15T10:24:29.516Z,13.60
2018-12-15T10:26:56.928Z,14.30
2018-12-15T10:29:30.180Z,14.50
2018-12-15T10:32:03.366Z,14.10
2018-12-15T10:34:30.809Z,14.83
2018-12-15T10:36:58.240Z,15.37
2018-12-15T10:39:25.675Z,15.67
2018-12-15T10:41:53.117Z,14.33
2018-12-15T10:44:20.562Z,17.67
2018-12-15T10:46:47.999Z,15.27
2018-12-15T10:49:15.656Z,15.73
2018-12-15T10:51:43.052Z,15.53
2018-12-15T10:54:10.494Z,15.57
2018-12-15T10:56:37.891Z,15.57
2018-12-15T10:59:05.359Z,14.73
2018-12-15T11:01:32.832Z,15.30
2018-12-15T11:04:00.868Z,18.20
2018-12-15T11:06:28.476Z,17.40
2018-12-15T11:08:55.947Z,19.00
2018-12-15T11:11:23.344Z,18.80
2018-12-15T11:13:50.791Z,15.80
2018-12-15T11:16:18.203Z,15.97
2018-12-15T11:18:45.616Z,15.63
2018-12-15T11:21:13.047Z,15.13
2018-12-15T11:23:40.449Z,15.47
2018-12-15T11:26:07.911Z,16.93
2018-12-15T11:28:35.315Z,16.67
2018-12-15T11:31:02.797Z,15.10
2018-12-15T11:33:30.201Z,16.27
2018-12-15T11:35:57.603Z,15.93
2018-12-15T11:38:25.027Z,14.63
2018-12-15T11:40:52.447Z,15.80
2018-12-15T11:43:19.861Z,15.40
2018-12-15T11:45:47.314Z,15.90
2018-12-15T11:48:14.975Z,16.30
2018-12-15T11:50:42.390Z,17.13
2018-12-15T11:53:09.788Z,16.10
2018-12-15T11:55:37.268Z,16.40
2018-12-15T11:58:04.667Z,17.03
2018-12-15T12:00:32.228Z,16.97
2018-12-15T12:02:59.632Z,17.23
2018-12-15T12:05:27.078Z,16.97
2018-12-15T12:07:54.486Z,18.03
2018-12-15T12:10:23.104Z,17.07
2018-12-15T12:12:50.534Z,18.50
2018-12-15T12:15:17.983Z,18.03
2018-12-15T12:17:45.456Z,18.97
2018-12-15T12:20:12.949Z,17.60
2018-12-15T12:22:40.364Z,19.07
2018-12-15T12:25:07.943Z,17.80
2018-12-15T12:27:35.347Z,18.53
2018-12-15T12:30:03.048Z,19.03
2018-12-15T12:32:30.460Z,19.10
2018-12-15T12:34:57.902Z,20.00
2018-12-15T12:37:25.325Z,20.33
2018-12-15T12:39:52.788Z,19.77
2018-12-15T12:42:20.183Z,18.70
2018-12-15T12:44:47.619Z,21.10
2018-12-15T12:47:15.099Z,20.47
2018-12-15T12:49:42.533Z,20.23
2018-12-15T12:52:09.939Z,20.07
2018-12-15T12:54:37.367Z,19.60
2018-12-15T12:57:06.731Z,22.10
2018-12-15T12:59:34.541Z,22.90
2018-12-15T13:02:02.294Z,38.27
2018-12-15T13:04:29.738Z,29.03
2018-12-15T13:06:57.128Z,20.83
2018-12-15T13:09:24.572Z,21.17
2018-12-15T13:11:51.955Z,20.53
2018-12-15T13:14:19.390Z,20.63
2018-12-15T13:16:46.948Z,20.13
2018-12-15T13:19:14.527Z,20.37
2018-12-15T13:21:41.924Z,19.80
2018-12-15T13:24:09.412Z,19.60
2018-12-15T13:26:36.847Z,21.47
2018-12-15T13:29:04.416Z,21.63
2018-12-15T13:31:31.847Z,20.73
2018-12-15T13:33:59.243Z,20.57
2018-12-15T13:36:26.808Z,20.70
2018-12-15T13:38:54.327Z,19.50
2018-12-15T13:41:21.790Z,20.00
2018-12-15T13:43:49.176Z,19.47
2018-12-15T13:46:16.735Z,19.77
2018-12-15T13:48:44.148Z,20.07
2018-12-15T13:51:11.613Z,20.87
2018-12-15T13:53:39.116Z,20.43
2018-12-15T13:56:06.672Z,21.53
2018-12-15T13:58:34.086Z,22.03
2018-12-15T14:01:01.541Z,20.27
2018-12-15T14:03:28.945Z,21.43
2018-12-15T14:05:56.420Z,21.50
2018-12-15T14:08:23.929Z,21.27
2018-12-15T14:10:51.495Z,21.60
2018-12-15T14:13:18.900Z,20.17
2018-12-15T14:15:46.382Z,21.17
2018-12-15T14:18:13.862Z,20.10
2018-12-15T14:20:41.337Z,20.47
2018-12-15T14:23:08.735Z,22.67
2018-12-15T14:25:36.212Z,20.13
2018-12-15T14:28:03.637Z,20.87
2018-12-15T14:30:31.093Z,20.60
2018-12-15T14:32:58.482Z,22.33
2018-12-15T14:35:25.904Z,23.70
2018-12-15T14:37:53.293Z,22.40
2018-12-15T14:40:20.756Z,21.17
2018-12-15T14:42:48.163Z,21.50
2018-12-15T14:45:15.607Z,24.53
2018-12-15T14:47:43.053Z,20.23
2018-12-15T14:50:10.638Z,23.57
2018-12-15T14:52:38.060Z,23.87
2018-12-15T14:55:05.740Z,21.77
2018-12-15T14:57:33.163Z,20.73
2018-12-15T15:00:00.614Z,20.30
2018-12-15T15:02:28.112Z,20.57
2018-12-15T15:04:55.519Z,19.73
2018-12-15T15:07:22.993Z,20.10
2018-12-15T15:09:50.542Z,19.83
2018-12-15T15:12:18.024Z,20.33
2018-12-15T15:14:45.416Z,20.20
2018-12-15T15:17:12.879Z,19.43
2018-12-15T15:19:40.279Z,19.20
2018-12-15T15:22:07.857Z,20.07
2018-12-15T15:24:35.251Z,19.33
2018-12-15T15:27:02.696Z,19.63
2018-12-15T15:29:30.095Z,20.70
2018-12-15T15:31:57.558Z,19.93
2018-12-15T15:34:25.026Z,20.17
2018-12-15T15:36:52.528Z,20.13
2018-12-15T15:39:20.057Z,21.93
2018-12-15T15:41:47.606Z,20.10
2018-12-15T15:44:15.050Z,20.30
2018-12-15T15:46:42.503Z,21.33
2018-12-15T15:49:09.912Z,19.20
2018-12-15T15:51:37.597Z,19.60
2018-12-15T15:54:05.025Z,19.57
2018-12-15T15:56:32.493Z,21.73
2018-12-15T15:58:59.896Z,19.40
2018-12-15T16:01:27.364Z,19.97
2018-12-15T16:03:54.814Z,19.97
2018-12-15T16:06:22.271Z,19.00
2018-12-15T16:08:49.717Z,19.90
2018-12-15T16:11:17.152Z,20.37
2018-12-15T16:13:44.665Z,21.23
2018-12-15T16:16:44.357Z,19.00
2018-12-15T16:19:11.748Z,20.70
2018-12-15T16:21:39.213Z,19.40
2018-12-15T16:24:06.623Z,21.17
2018-12-15T16:26:34.072Z,19.40
2018-12-15T16:29:01.458Z,19.60
2018-12-15T16:31:28.930Z,19.00
2018-12-15T16:33:56.341Z,19.63
2018-12-15T16:36:23.811Z,19.67
2018-12-15T16:38:51.216Z,19.77
2018-12-15T16:41:18.662Z,20.23
2018-12-15T16:43:46.179Z,19.80
2018-12-15T16:46:13.642Z,19.90
2018-12-15T16:48:41.045Z,18.70
2018-12-15T16:51:08.617Z,19.77
2018-12-15T16:53:36.036Z,19.73
2018-12-15T16:56:03.513Z,19.53
2018-12-15T16:58:30.924Z,19.17
2018-12-15T17:00:58.384Z,19.67
2018-12-15T17:03:30.480Z,21.23
2018-12-15T17:05:55.284Z,20.70
2018-12-15T17:08:22.943Z,20.20
2018-12-15T17:10:50.636Z,20.90
2018-12-15T17:13:19.653Z,19.83
2018-12-15T17:15:47.423Z,19.67
2018-12-15T17:18:14.833Z,19.40
2018-12-15T17:20:42.269Z,21.53
2018-12-15T17:23:09.726Z,19.57
2018-12-15T17:25:37.156Z,20.30
2018-12-15T17:28:04.644Z,21.43
2018-12-15T17:30:32.036Z,23.17
2018-12-15T17:32:59.476Z,20.50
2018-12-15T17:35:26.904Z,20.43
2018-12-15T17:37:54.373Z,19.77
2018-12-15T17:40:21.783Z,19.03
2018-12-15T17:42:49.215Z,19.53
2018-12-15T17:45:16.640Z,19.93
2018-12-15T17:47:44.107Z,19.47
2018-12-15T17:50:11.775Z,19.90
2018-12-15T17:52:39.268Z,20.13
2018-12-15T17:55:07.184Z,19.13
2018-12-15T17:57:35.961Z,18.47
2018-12-15T18:00:05.753Z,19.33
2018-12-15T18:02:33.213Z,23.57
2018-12-15T18:05:00.594Z,20.53
2018-12-15T18:07:28.053Z,19.10
2018-12-15T18:09:55.485Z,19.17
2018-12-15T18:12:22.943Z,22.03
2018-12-15T18:14:50.344Z,20.27
2018-12-15T18:17:17.784Z,18.20
2018-12-15T18:19:45.187Z,19.13
2018-12-15T18:22:12.634Z,19.20
2018-12-15T18:24:40.028Z,18.97
2018-12-15T18:27:07.476Z,19.40
2018-12-15T18:29:34.920Z,19.53
2018-12-15T18:32:02.381Z,19.53
2018-12-15T18:34:29.783Z,19.70
2018-12-15T18:36:57.584Z,19.70
2018-12-15T18:39:25.012Z,18.30
2018-12-15T18:41:52.530Z,18.80
2018-12-15T18:44:20.012Z,20.50
2018-12-15T18:46:47.487Z,19.57
2018-12-15T18:49:14.892Z,18.40
2018-12-15T18:51:42.482Z,19.03
2018-12-15T18:54:09.925Z,18.70
2018-12-15T18:56:37.496Z,19.73
2018-12-15T18:59:05.038Z,21.63
2018-12-15T19:01:32.495Z,21.20
2018-12-15T19:03:59.895Z,20.90
2018-12-15T19:06:27.352Z,19.73
2018-12-15T19:08:54.785Z,19.93
2018-12-15T19:11:22.258Z,18.23
2018-12-15T19:13:49.678Z,19.17
2018-12-15T19:16:17.154Z,20.93
2018-12-15T19:18:44.692Z,20.07
2018-12-15T19:21:12.114Z,17.93
2018-12-15T19:23:39.576Z,19.37
2018-12-15T19:26:07.036Z,19.60
2018-12-15T19:28:34.544Z,19.97
2018-12-15T19:31:01.943Z,20.43
2018-12-15T19:33:29.407Z,19.50
2018-12-15T19:35:56.884Z,19.67
2018-12-15T19:38:24.374Z,20.33
2018-12-15T19:40:51.785Z,20.63
2018-12-15T19:43:19.256Z,22.20
2018-12-15T19:45:46.663Z,22.03
2018-12-15T19:48:14.253Z,22.33
2018-12-15T19:50:41.689Z,20.90
2018-12-15T19:53:15.816Z,22.27
2018-12-15T19:55:43.257Z,22.80
2018-12-15T19:58:10.737Z,21.73
2018-12-15T20:00:38.146Z,21.47
2018-12-15T20:03:05.599Z,23.77
2018-12-15T20:05:33.000Z,21.50
2018-12-15T20:08:00.468Z,21.60
2018-12-15T20:10:27.871Z,21.37
2018-12-15T20:12:55.311Z,19.90
2018-12-15T20:15:22.713Z,21.20
2018-12-15T20:17:50.193Z,21.70
2018-12-15T20:20:17.835Z,21.47
2018-12-15T20:22:45.316Z,21.17
2018-12-15T20:25:12.762Z,21.90
2018-12-15T20:27:40.224Z,21.57
2018-12-15T20:30:08.245Z,22.37
2018-12-15T20:32:35.695Z,21.80
2018-12-15T20:35:03.253Z,21.30
2018-12-15T20:37:30.741Z,20.90
2018-12-15T20:39:58.176Z,22.77
2018-12-15T20:42:25.635Z,21.87
2018-12-15T20:44:53.064Z,20.93
2018-12-15T20:47:20.564Z,22.00
2018-12-15T20:49:48.078Z,22.13
2018-12-15T20:52:15.511Z,20.30
2018-12-15T20:54:42.903Z,21.53
2018-12-15T20:57:10.363Z,21.53
2018-12-15T20:59:37.787Z,21.07
2018-12-15T21:02:05.383Z,21.97
2018-12-15T21:04:32.776Z,22.90
2018-12-15T21:07:00.228Z,22.27
2018-12-15T21:09:27.625Z,22.07
2018-12-15T21:11:55.172Z,22.03
2018-12-15T21:14:22.564Z,22.07
2018-12-15T21:16:50.000Z,27.73
2018-12-15T21:19:17.451Z,21.03
2018-12-15T21:21:49.508Z,21.20
2018-12-15T21:24:14.792Z,20.77
2018-12-15T21:26:42.203Z,20.63
2018-12-15T21:29:09.790Z,20.20
2018-12-15T21:31:39.552Z,20.23
2018-12-15T21:34:08.073Z,21.30
2018-12-15T21:36:36.407Z,21.47
2018-12-15T21:39:05.951Z,23.20
2018-12-15T21:41:33.336Z,22.07
2018-12-15T21:44:00.854Z,21.37
2018-12-15T21:46:28.297Z,20.07
2018-12-15T21:48:56.034Z,21.00
2018-12-15T21:51:23.461Z,20.90
2018-12-15T21:53:50.928Z,22.40
2018-12-15T21:56:18.328Z,19.73
2018-12-15T21:58:45.855Z,19.97
2018-12-15T22:01:13.267Z,20.17
2018-12-15T22:03:40.736Z,20.83
2018-12-15T22:06:08.134Z,20.23
2018-12-15T22:08:35.586Z,21.00
2018-12-15T22:11:03.115Z,19.60
2018-12-15T22:13:30.524Z,19.87
2018-12-15T22:15:57.932Z,20.43
2018-12-15T22:18:25.356Z,19.77
2018-12-15T22:20:53.088Z,21.23
2018-12-15T22:23:20.499Z,18.53
2018-12-15T22:25:47.909Z,19.43
2018-12-15T22:28:15.337Z,19.87
2018-12-15T22:30:42.727Z,20.97
2018-12-15T22:33:10.178Z,19.27
2018-12-15T22:35:37.609Z,21.43
2018-12-15T22:38:05.056Z,18.77
2018-12-15T22:40:32.440Z,20.07
2018-12-15T22:42:59.854Z,20.23
2018-12-15T22:45:27.268Z,20.23
2018-12-15T22:47:54.716Z,18.43
2018-12-15T22:50:22.301Z,19.63
2018-12-15T22:52:49.724Z,19.43
2018-12-15T22:55:17.126Z,19.17
2018-12-15T22:57:45.017Z,19.07
2018-12-15T23:00:12.560Z,20.03
2018-12-15T23:02:40.224Z,19.00
2018-12-15T23:05:07.800Z,18.30
2018-12-15T23:07:35.213Z,18.30
2018-12-15T23:10:02.919Z,18.10
2018-12-15T23:12:30.361Z,19.40
2018-12-15T23:14:57.739Z,19.07
2018-12-15T23:17:25.151Z,19.33
2018-12-15T23:19:52.548Z,19.67
2018-12-15T23:22:20.920Z,18.93
2018-12-15T23:24:48.331Z,19.17
2018-12-15T23:27:15.720Z,17.93
2018-12-15T23:29:43.132Z,19.23
2018-12-15T23:32:10.528Z,18.87
2018-12-15T23:34:37.956Z,19.63
2018-12-15T23:37:05.371Z,20.07
2018-12-15T23:39:33.643Z,20.70
2018-12-15T23:42:01.089Z,20.10
2018-12-15T23:44:29.416Z,19.17
2018-12-15T23:46:56.880Z,20.57
2018-12-15T23:49:24.342Z,19.63
2018-12-15T23:51:51.703Z,20.00
2018-12-15T23:54:19.119Z,19.37
2018-12-15T23:56:46.517Z,18.73
2018-12-15T23:59:13.928Z,19.50
